EW2538 Weather Reports


Display with metric or nautical units.
time (UTC)temp
F
wind
direction
speed
MPH
gust
MPH
rain 1hr
in
rain 24hr
in
rain mn
in
humidity
%
barometer
mb
20190418203443 0 0.0 0.0 0.00 0.40 0.40 980.1
20190418201923 0 0.0 0.0 0.00 0.40 0.40 979.5
20190418195940 0 0.0 0.0 0.00 0.40 0.40 979.6
20190418194431 0 0.0 0.0 0.00 0.40 0.40 979.8
20190418191941 0 0.0 0.0 0.00 0.40 0.40 979.6
20190418190426 0 0.0 0.0 0.00 0.40 0.40 979.4
20190418184922 0 0.0 0.0 0.00 0.40 0.40 979.1
20190418182927 0 0.0 0.0 0.00 0.40 0.40 978.9
20190418181420 48 297 13.0 19.0 0.01 0.40 0.40 90 979.0
20190418175919 47 304 13.0 17.0 0.04 0.40 0.40 90 978.8
20190418173903 47 289 13.0 21.0 0.04 0.40 0.40 90 979.2
20190418171903 47 291 9.0 16.0 0.04 0.40 0.40 93 979.2
20190418170353 47 304 12.0 17.0 0.01 0.37 0.37 92 979.0
20190418164409 47 302 13.0 21.0 0.00 0.36 0.36 92 978.2
20190418162423 48 301 15.0 22.0 0.00 0.36 0.36 93 978.1
20190418160902 47 302 16.0 23.0 0.00 0.36 0.36 92 977.8
20190418155338 0 0.0 0.0 0.00 0.36 0.36 977.3
20190418153429 0 0.0 0.0 0.00 0.36 0.36 976.9
20190418151426 48 327 13.0 23.0 0.00 0.36 0.36 92 976.0
20190418145910 48 307 15.0 24.0 0.00 0.36 0.36 92 976.3
20190418143937 49 307 15.0 26.0 0.00 0.36 0.36 93 976.2
20190418141944 50 306 14.0 23.0 0.00 0.36 0.36 92 976.2
20190418140428 50 322 18.0 24.0 0.00 0.36 0.36 91 976.0
20190418134423 51 316 13.0 17.0 0.00 0.36 0.36 93 975.5
20190418132446 53 333 11.0 16.0 0.00 0.36 0.36 93 975.0
20190418130940 53 326 9.0 13.0 0.00 0.36 0.36 93 975.2
20190418124921 54 335 7.0 10.0 0.00 0.36 0.36 94 975.2
20190418123415 54 358 7.0 9.0 0.01 0.36 0.36 94 975.1
20190418121455 54 335 6.0 9.0 0.02 0.36 0.36 94 975.5
20190418115931 55 338 5.0 7.0 0.03 0.36 0.36 94 974.7
20190418113926 54 34 2.0 3.0 0.03 0.35 0.35 94 974.8
20190418112413 55 289 2.0 4.0 0.03 0.35 0.35 94 975.4
20190418110416 55 323 5.0 8.0 0.01 0.33 0.33 95 975.2
20190418104907 55 316 7.0 9.0 0.00 0.32 0.32 95 975.2
20190418102911 56 316 6.0 10.0 0.00 0.32 0.32 94 975.5
20190418101408 58 328 7.0 11.0 0.00 0.32 0.32 94 975.2
20190418095410 58 256 7.0 11.0 0.05 0.32 0.32 94 975.6
20190418093901 58 283 5.0 8.0 0.24 0.32 0.32 94 975.4
20190418091927 58 245 10.0 20.0 0.30 0.32 0.32 93 975.7
20190418085921 59 272 17.0 35.0 0.28 0.29 0.29 91 976.4
20190418084416 62 273 23.0 31.0 0.19 0.19 0.18 92 976.7
20190418082424 63 242 21.0 31.0 0.03 0.03 0.03 92 975.8
20190418080917 63 214 22.0 28.0 0.02 0.02 0.02 90 975.0
20190418075410 63 212 19.0 26.0 0.00 0.00 0.00 88 975.0
20190418073903 64 226 19.0 25.0 0.00 0.00 0.00 87 974.9
20190418072358 64 232 17.0 28.0 0.00 0.00 0.00 86 975.0
20190418070430 64 226 21.0 28.0 0.00 0.00 0.00 86 975.8
20190418064425 63 214 19.0 26.0 0.00 0.00 0.00 87 976.3
20190418062427 63 205 17.0 25.0 0.00 0.00 0.00 86 976.6
20190418060928 63 207 17.0 25.0 0.00 0.00 0.00 86 976.3
20190418055424 63 208 17.0 23.0 0.00 0.00 0.00 85 976.5
20190418053415 63 215 17.0 24.0 0.00 0.00 0.00 85 976.5
20190418051912 63 217 17.0 24.0 0.00 0.00 0.00 85 976.6
20190418045959 63 219 15.0 23.0 0.00 0.00 0.00 85 976.8
20190418044358 63 228 17.0 23.0 0.00 0.00 0.00 84 976.6
20190418042414 64 224 19.0 23.0 0.00 0.00 0.00 84 976.7
20190418040911 64 195 18.0 26.0 0.00 0.00 0.00 84 977.1
20190418034438 64 228 21.0 28.0 0.00 0.00 0.00 83 976.9
20190418032426 65 211 19.0 29.0 0.00 0.00 0.00 83 977.1
20190418030434 65 210 19.0 27.0 0.00 0.00 0.00 82 977.3
20190418024927 66 207 17.0 23.0 0.00 0.00 0.00 82 977.7
20190418023418 66 223 17.0 22.0 0.00 0.00 0.00 81 977.9
20190418021917 67 217 19.0 24.0 0.00 0.00 0.00 79 978.0
20190418015932 67 210 14.0 20.0 0.00 0.00 0.00 78 978.3
20190418014431 67 213 17.0 23.0 0.00 0.00 0.00 76 978.1
20190418012929 68 207 17.0 22.0 0.00 0.00 0.00 74 977.6
20190418011412 68 205 14.0 24.0 0.00 0.00 0.00 73 977.4
20190418005431 69 205 17.0 23.0 0.00 0.00 0.00 69 977.2
20190418003927 70 201 16.0 23.0 0.00 0.00 0.00 66 976.9
20190418001937 71 218 17.0 25.0 0.00 0.00 0.00 62 976.9
20190417235944 73 198 15.0 22.0 0.00 0.00 0.00 57 977.1
20190417234425 74 215 19.0 25.0 0.00 0.00 0.00 55 977.0
20190417232448 75 217 22.0 28.0 0.00 0.00 0.00 51 977.2
20190417230921 75 219 22.0 29.0 0.00 0.00 0.00 52 977.4
20190417224944 76 207 23.0 32.0 0.00 0.00 0.00 52 977.3
20190417222931 76 222 21.0 30.0 0.00 0.00 0.00 52 977.5
20190417220502 75 226 22.0 31.0 0.00 0.00 0.00 50 977.8
20190417214911 76 217 25.0 36.0 0.00 0.00 0.00 47 977.9
20190417212935 0 0.0 0.0 0.00 0.00 0.00 977.9
20190417210925 0 0.0 0.0 0.00 0.00 0.00 977.7